Time;durP1;ratioP1;P1;durP2;ratioP2;P2;SDS_P1;SDS_P2;PMS_P1;PMS_P2;Temp;Humidity;BMP_temperature;BMP_pressure;BME280_temperature;BME280_humidity;BME280_pressure;Samples;Min_cycle;Max_cycle;Signal;HPM_P1;HPM_P2
2023/09/08 00:00:59;;;;;;;0.13;0.13;;;;;;;16.05;72.90;97991.44;5007596;28;20494;-68
2023/09/08 00:03:26;;;;;;;0.15;0.15;;;;;;;15.94;73.54;97984.06;5011078;28;20162;-68
2023/09/08 00:05:54;;;;;;;0.10;0.10;;;;;;;15.90;73.50;97986.38;5007295;28;20058;-68
2023/09/08 00:08:23;;;;;;;0.08;0.08;;;;;;;15.92;73.51;97983.47;5011422;28;20057;-69
2023/09/08 00:10:52;;;;;;;0.13;0.13;;;;;;;15.89;73.59;97998.19;5005340;28;20038;-69
2023/09/08 00:13:21;;;;;;;0.10;0.10;;;;;;;15.87;73.54;97992.22;5001934;28;20046;-68
2023/09/08 00:15:48;;;;;;;0.13;0.13;;;;;;;15.83;73.58;97995.53;5003991;28;20048;-68
2023/09/08 00:18:16;;;;;;;0.10;0.10;;;;;;;15.95;72.93;97993.81;5011334;28;20121;-68
2023/09/08 00:20:44;;;;;;;0.13;0.13;;;;;;;15.95;72.59;97988.41;5008142;28;20042;-69
2023/09/08 00:23:12;;;;;;;0.13;0.13;;;;;;;16.07;72.06;97992.06;5008541;28;20050;-69
2023/09/08 00:25:39;;;;;;;0.13;0.13;;;;;;;16.01;71.84;97990.22;5007217;28;20524;-69
2023/09/08 00:28:08;;;;;;;0.17;0.17;;;;;;;15.82;72.43;97992.03;5003424;28;20096;-68
2023/09/08 00:30:36;;;;;;;0.03;0.03;;;;;;;15.62;73.29;97994.03;4998158;28;20614;-69
2023/09/08 00:33:08;;;;;;;0.10;0.10;;;;;;;15.71;72.80;97985.47;5007481;28;20438;-68
2023/09/08 00:35:36;;;;;;;0.13;0.13;;;;;;;15.86;72.10;97984.34;4993120;28;20050;-69
2023/09/08 00:38:04;;;;;;;0.13;0.13;;;;;;;15.99;71.59;97978.84;4994653;28;20088;-69
2023/09/08 00:40:32;;;;;;;0.13;0.13;;;;;;;15.79;72.34;97985.19;4992561;28;20465;-69
2023/09/08 00:43:02;;;;;;;0.22;0.22;;;;;;;15.59;73.02;97984.50;5010326;28;20085;-69
2023/09/08 00:45:39;;;;;;;0.20;0.20;;;;;;;15.43;73.97;97983.16;5011932;28;20490;-69
2023/09/08 00:48:08;;;;;;;0.10;0.10;;;;;;;15.27;74.58;97982.81;4987076;28;20065;-69
2023/09/08 00:50:36;;;;;;;0.20;0.20;;;;;;;15.30;74.29;97991.28;5002679;28;20045;-69
2023/09/08 00:53:05;;;;;;;0.20;0.20;;;;;;;15.20;74.54;97990.09;5004681;28;20046;-69
2023/09/08 00:55:33;;;;;;;0.13;0.13;;;;;;;15.21;74.57;97989.06;5009881;28;20034;-69
2023/09/08 00:58:02;;;;;;;0.03;0.03;;;;;;;15.14;74.87;97983.72;5010376;28;20060;-68
2023/09/08 01:00:29;;;;;;;0.22;0.22;;;;;;;15.30;73.81;97985.91;5012076;28;20046;-69
2023/09/08 01:02:59;;;;;;;0.08;0.08;;;;;;;15.16;74.04;97978.13;4994231;28;20050;-69
2023/09/08 01:05:26;;;;;;;0.10;0.10;;;;;;;15.24;73.55;97980.56;5000146;28;20080;-69
2023/09/08 01:07:55;;;;;;;0.10;0.10;;;;;;;15.18;73.88;97987.59;5009999;28;20046;-68
2023/09/08 01:10:23;;;;;;;0.10;0.10;;;;;;;14.97;74.58;97991.41;4995142;28;20095;-69
2023/09/08 01:12:51;;;;;;;0.13;0.13;;;;;;;15.00;74.57;97982.94;5016871;28;20050;-69
2023/09/08 01:15:19;;;;;;;0.20;0.20;;;;;;;15.07;74.30;97981.03;4992472;28;20544;-69
2023/09/08 01:17:47;;;;;;;0.10;0.10;;;;;;;15.00;74.68;97988.31;5010480;28;20088;-69
2023/09/08 01:20:21;;;;;;;0.10;0.10;;;;;;;14.86;74.82;97989.38;4993455;28;20049;-69
2023/09/08 01:23:16;;;;;;;0.15;0.15;;;;;;;15.02;74.25;97983.56;5009313;28;20042;-69
2023/09/08 01:25:48;;;;;;;0.13;0.13;;;;;;;15.10;73.70;97985.16;5009969;28;20148;-68
2023/09/08 01:28:16;;;;;;;0.13;0.13;;;;;;;15.08;74.04;97984.56;4999861;28;20107;-68
2023/09/08 01:30:46;;;;;;;0.20;0.20;;;;;;;15.02;74.28;97980.88;4993747;28;20042;-68
2023/09/08 01:33:14;;;;;;;0.13;0.13;;;;;;;15.09;73.90;97978.13;5010754;28;20045;-68
2023/09/08 01:35:42;;;;;;;0.10;0.10;;;;;;;14.85;74.74;97976.16;5003651;28;20485;-68
2023/09/08 01:38:09;;;;;;;0.13;0.13;;;;;;;14.75;75.13;97973.91;4991354;28;20145;-68
2023/09/08 01:40:37;;;;;;;0.03;0.03;;;;;;;14.69;75.36;97982.84;4993792;28;20152;-68
2023/09/08 01:43:06;;;;;;;0.10;0.10;;;;;;;14.48;75.95;97981.22;5003259;28;20376;-68
2023/09/08 01:45:34;;;;;;;0.25;0.25;;;;;;;14.53;75.59;97984.13;5012432;28;20070;-68
2023/09/08 01:48:04;;;;;;;0.03;0.03;;;;;;;14.56;75.37;97982.88;4985224;28;20042;-69
2023/09/08 01:50:31;;;;;;;0.20;0.20;;;;;;;14.61;75.07;97980.38;5019528;23;20096;-66
2023/09/08 01:52:59;;;;;;;0.13;0.13;;;;;;;14.54;74.86;97980.38;5000376;28;20784;-66
2023/09/08 01:55:28;;;;;;;0.20;0.20;;;;;;;14.53;74.98;97981.44;5005124;28;20050;-65
2023/09/08 01:57:57;;;;;;;0.13;0.13;;;;;;;14.57;74.68;97973.78;5002498;28;20042;-65
2023/09/08 02:00:26;;;;;;;0.10;0.10;;;;;;;14.57;74.62;97971.91;4980437;28;20054;-65
2023/09/08 02:02:53;;;;;;;0.15;0.15;;;;;;;14.54;74.45;97972.31;4996293;28;20050;-65
2023/09/08 02:05:22;;;;;;;0.13;0.13;;;;;;;14.49;74.71;97974.84;4981809;28;20046;-65
2023/09/08 02:07:50;;;;;;;0.13;0.13;;;;;;;14.35;75.32;97981.22;5008921;28;20128;-64
2023/09/08 02:10:18;;;;;;;0.10;0.10;;;;;;;14.46;74.96;97972.56;4986890;28;20386;-67
2023/09/08 02:12:46;;;;;;;0.20;0.20;;;;;;;14.40;74.79;97973.41;4983603;28;20746;-66
2023/09/08 02:15:15;;;;;;;0.22;0.22;;;;;;;14.38;74.80;97975.44;4984502;28;20050;-67
2023/09/08 02:17:44;;;;;;;0.13;0.13;;;;;;;14.36;74.89;97972.13;4983092;28;20045;-65
2023/09/08 02:20:12;;;;;;;0.43;0.43;;;;;;;14.20;75.57;97975.25;5006823;28;20049;-66
2023/09/08 02:22:40;;;;;;;0.13;0.13;;;;;;;14.13;75.76;97972.56;4993268;28;20104;-68
2023/09/08 02:25:08;;;;;;;0.03;0.03;;;;;;;14.10;75.99;97978.38;5005219;28;20038;-66
2023/09/08 02:27:37;;;;;;;0.17;0.17;;;;;;;13.93;76.07;97972.56;5009987;28;20049;-66
2023/09/08 02:30:06;;;;;;;0.30;0.30;;;;;;;13.86;76.41;97985.19;4981404;28;20370;-65
2023/09/08 02:32:34;;;;;;;0.20;0.20;;;;;;;14.06;75.81;97984.34;4991117;28;20068;-65
2023/09/08 02:35:04;;;;;;;0.17;0.17;;;;;;;13.99;75.68;97976.31;4984950;28;20046;-65
2023/09/08 02:37:32;;;;;;;0.10;0.10;;;;;;;14.00;75.83;97974.44;4984910;28;20985;-65
2023/09/08 02:40:00;;;;;;;0.13;0.13;;;;;;;14.02;75.46;97983.09;4982739;28;20046;-66
2023/09/08 02:42:27;;;;;;;0.25;0.25;;;;;;;14.15;75.09;97981.25;4983513;28;20133;-66
2023/09/08 02:44:57;;;;;;;0.03;0.03;;;;;;;14.22;74.59;97975.88;4982609;28;20515;-65
2023/09/08 02:47:25;;;;;;;0.03;0.03;;;;;;;14.26;74.39;97983.31;4984330;28;20042;-65
2023/09/08 02:49:52;;;;;;;0.13;0.13;;;;;;;14.11;74.85;97980.03;4983981;28;20488;-66
2023/09/08 02:52:21;;;;;;;0.10;0.10;;;;;;;14.23;74.72;97977.50;5002871;28;20099;-66
2023/09/08 02:54:49;;;;;;;0.20;0.20;;;;;;;14.17;74.51;97971.13;4978704;28;20482;-65
2023/09/08 02:57:17;;;;;;;0.15;0.15;;;;;;;14.08;74.90;97972.38;4986775;28;20049;-65
2023/09/08 02:59:50;;;;;;;0.20;0.20;;;;;;;14.03;74.74;97974.84;4980898;28;20581;-64
2023/09/08 03:02:18;;;;;;;0.10;0.10;;;;;;;13.94;75.07;97974.22;5001456;28;20108;-66
2023/09/08 03:04:46;;;;;;;0.20;0.20;;;;;;;13.84;75.66;97968.44;4998649;28;20046;-65
2023/09/08 03:07:14;;;;;;;0.10;0.10;;;;;;;13.78;75.60;97968.47;4988610;28;20077;-64
2023/09/08 03:09:44;;;;;;;0.13;0.13;;;;;;;13.75;75.61;97968.84;4990435;28;20197;-64
2023/09/08 03:12:12;;;;;;;0.13;0.13;;;;;;;13.81;75.60;97966.16;4985034;28;20541;-66
2023/09/08 03:14:40;;;;;;;0.10;0.10;;;;;;;13.58;75.90;97963.91;5005598;28;20046;-65
2023/09/08 03:17:08;;;;;;;0.20;0.20;;;;;;;13.58;76.05;97963.91;4992521;28;20048;-65
2023/09/08 03:19:36;;;;;;;0.20;0.20;;;;;;;13.69;75.70;97957.09;4982855;28;20052;-64
2023/09/08 03:22:04;;;;;;;0.13;0.13;;;;;;;13.52;76.26;97964.69;4995480;28;20045;-65
2023/09/08 03:24:32;;;;;;;0.22;0.22;;;;;;;13.61;75.83;97959.97;5003643;28;20070;-65
2023/09/08 03:27:02;;;;;;;0.03;0.03;;;;;;;13.67;75.84;97972.56;4992004;28;20046;-65
2023/09/08 03:29:29;;;;;;;0.13;0.13;;;;;;;13.63;75.95;97962.44;5002327;28;20053;-65
2023/09/08 03:31:59;;;;;;;0.20;0.20;;;;;;;13.56;75.95;97960.59;4984865;28;20562;-65
2023/09/08 03:34:27;;;;;;;0.22;0.22;;;;;;;13.51;76.25;97962.22;5006212;28;20077;-65
2023/09/08 03:36:55;;;;;;;0.03;0.03;;;;;;;13.66;75.84;97967.41;5008703;28;20053;-66
2023/09/08 03:39:23;;;;;;;0.13;0.13;;;;;;;13.73;75.56;97955.66;5004343;28;20066;-66
2023/09/08 03:41:50;;;;;;;0.22;0.22;;;;;;;13.62;75.53;97963.47;4989001;28;20096;-65
2023/09/08 03:44:19;;;;;;;0.03;0.03;;;;;;;13.54;75.92;97967.19;5006672;28;20064;-66
2023/09/08 03:46:47;;;;;;;0.10;0.10;;;;;;;13.54;75.68;97957.28;4985553;28;20125;-66
2023/09/08 03:49:15;;;;;;;0.63;0.63;;;;;;;13.52;76.09;97953.16;5007513;28;20727;-67
2023/09/08 03:51:42;;;;;;;0.25;0.25;;;;;;;13.45;75.99;97953.16;5008203;28;20606;-65
2023/09/08 03:54:10;;;;;;;0.15;0.15;;;;;;;13.46;76.23;97953.97;4982084;28;20501;-68
2023/09/08 03:56:38;;;;;;;0.03;0.03;;;;;;;13.34;76.63;97955.59;5008996;28;20048;-66
2023/09/08 03:59:06;;;;;;;0.13;0.13;;;;;;;13.39;75.81;97953.94;4984571;28;20042;-66
2023/09/08 04:01:35;;;;;;;0.05;0.05;;;;;;;13.16;76.48;97950.81;5007526;28;20148;-66
2023/09/08 04:04:04;;;;;;;0.10;0.10;;;;;;;13.16;76.50;97953.50;4987276;28;20459;-65
2023/09/08 04:06:31;;;;;;;0.25;0.25;;;;;;;13.13;76.11;97951.19;4989356;28;20049;-66
2023/09/08 04:08:59;;;;;;;0.20;0.20;;;;;;;13.03;76.55;97958.78;4986806;28;20054;-65
2023/09/08 04:11:27;;;;;;;0.22;0.22;;;;;;;12.97;76.30;97955.06;5000063;28;20097;-65
2023/09/08 04:13:55;;;;;;;0.30;0.30;;;;;;;12.93;76.53;97953.81;5000170;28;20045;-66
2023/09/08 04:16:22;;;;;;;0.13;0.13;;;;;;;12.97;76.58;97947.03;5003213;28;20042;-65
2023/09/08 04:18:51;;;;;;;0.10;0.10;;;;;;;12.91;76.21;97955.84;5002638;28;20060;-66
2023/09/08 04:21:23;;;;;;;0.30;0.30;;;;;;;12.90;76.21;97958.72;5006016;28;20099;-64
2023/09/08 04:23:50;;;;;;;0.20;0.20;;;;;;;12.76;76.31;97958.69;5007406;28;20136;-65
2023/09/08 04:26:18;;;;;;;0.10;0.10;;;;;;;12.72;76.77;97964.63;4990357;28;20084;-67
2023/09/08 04:28:46;;;;;;;0.10;0.10;;;;;;;12.69;76.88;97955.13;5004308;28;20137;-65
2023/09/08 04:31:13;;;;;;;0.13;0.13;;;;;;;12.70;76.54;97964.00;4990144;28;20482;-65
2023/09/08 04:33:41;;;;;;;0.20;0.20;;;;;;;12.77;76.45;97963.00;5007957;28;20042;-65
2023/09/08 04:36:13;;;;;;;0.20;0.20;;;;;;;12.65;76.54;97959.25;4989590;28;20100;-66
2023/09/08 04:38:41;;;;;;;0.10;0.10;;;;;;;12.63;77.07;97955.13;4989349;28;20457;-66
2023/09/08 04:41:10;;;;;;;0.13;0.13;;;;;;;12.76;76.66;97952.50;4983836;28;20137;-65
2023/09/08 04:43:38;;;;;;;0.20;0.20;;;;;;;12.81;76.54;97942.84;4990907;28;20046;-66
2023/09/08 04:46:06;;;;;;;0.20;0.20;;;;;;;12.84;76.34;97952.31;4982773;28;20525;-65
2023/09/08 04:48:33;;;;;;;0.22;0.22;;;;;;;12.79;76.28;97954.75;4986875;28;20073;-66
2023/09/08 04:51:03;;;;;;;0.22;0.22;;;;;;;12.95;75.72;97950.94;4990755;28;20076;-66
2023/09/08 04:53:33;;;;;;;0.20;0.20;;;;;;;12.83;75.82;97956.03;5000781;28;20490;-65
2023/09/08 04:56:00;;;;;;;0.10;0.10;;;;;;;12.81;75.78;97956.22;4984245;28;20125;-66
2023/09/08 04:58:29;;;;;;;0.10;0.10;;;;;;;12.78;75.73;97950.44;4995674;28;20038;-66
2023/09/08 05:00:57;;;;;;;0.20;0.20;;;;;;;12.76;75.85;97947.16;5001637;28;20049;-65
2023/09/08 05:03:26;;;;;;;0.13;0.13;;;;;;;12.73;75.97;97950.22;4988188;28;20052;-66
2023/09/08 05:05:54;;;;;;;0.30;0.30;;;;;;;12.66;76.15;97957.41;4991489;28;20537;-66
2023/09/08 05:08:22;;;;;;;0.20;0.20;;;;;;;12.74;75.94;97951.88;4990020;28;20132;-65
2023/09/08 05:10:51;;;;;;;0.10;0.10;;;;;;;12.75;76.23;97959.72;4989910;28;20444;-66
2023/09/08 05:13:19;;;;;;;0.13;0.13;;;;;;;12.66;76.40;97957.41;4982960;28;20043;-66
2023/09/08 05:16:10;;;;;;;0.10;0.10;;;;;;;12.53;76.64;97958.16;4983526;28;20513;-66
2023/09/08 05:18:41;;;;;;;0.22;0.22;;;;;;;12.61;76.08;97957.16;4986373;28;20046;-66
2023/09/08 05:21:09;;;;;;;0.22;0.22;;;;;;;12.46;76.46;97955.44;4987285;28;20046;-66
2023/09/08 05:23:37;;;;;;;0.10;0.10;;;;;;;12.52;76.16;97955.69;4992130;28;20049;-66
2023/09/08 05:26:07;;;;;;;0.03;0.03;;;;;;;12.50;76.14;97956.69;4987403;28;20053;-66
2023/09/08 05:28:35;;;;;;;0.20;0.20;;;;;;;12.50;76.68;97955.88;4990025;28;20489;-66
2023/09/08 05:31:07;;;;;;;0.30;0.30;;;;;;;12.50;76.21;97955.88;4981585;28;20501;-66
2023/09/08 05:33:35;;;;;;;0.22;0.22;;;;;;;12.70;75.92;97959.47;4986079;28;20038;-66
2023/09/08 05:36:04;;;;;;;0.03;0.03;;;;;;;12.63;76.31;97953.25;5001223;28;20034;-66
2023/09/08 05:38:32;;;;;;;0.13;0.13;;;;;;;12.83;75.97;97962.22;4985815;28;20513;-66
2023/09/08 05:41:00;;;;;;;0.10;0.10;;;;;;;12.82;75.45;97962.41;4989656;28;20049;-66
2023/09/08 05:43:29;;;;;;;0.13;0.13;;;;;;;12.83;75.76;97958.72;4978740;28;20521;-66
2023/09/08 05:45:57;;;;;;;0.13;0.13;;;;;;;12.93;75.43;97963.69;4987290;28;20441;-66
2023/09/08 05:48:25;;;;;;;0.30;0.30;;;;;;;13.00;75.25;97964.53;4977175;28;20048;-66
2023/09/08 05:50:53;;;;;;;0.20;0.20;;;;;;;12.96;75.20;97964.13;4999936;28;20177;-65
2023/09/08 05:53:21;;;;;;;0.20;0.20;;;;;;;12.98;75.04;97963.94;4999356;28;20494;-65
2023/09/08 05:55:49;;;;;;;0.13;0.13;;;;;;;12.95;75.81;97962.47;4985791;28;20164;-66
2023/09/08 05:58:16;;;;;;;0.13;0.13;;;;;;;13.00;76.23;97969.88;4999622;28;20057;-66
2023/09/08 06:00:45;;;;;;;0.15;0.15;;;;;;;13.03;76.67;97961.47;4993066;28;20045;-65
2023/09/08 06:03:13;;;;;;;0.13;0.13;;;;;;;13.01;77.67;97952.78;4979507;28;20054;-65
2023/09/08 06:05:42;;;;;;;0.10;0.10;;;;;;;13.09;77.83;97955.28;4981571;28;20528;-65
2023/09/08 06:08:10;;;;;;;0.10;0.10;;;;;;;13.09;78.37;97956.09;4984532;28;20049;-65
2023/09/08 06:10:41;;;;;;;0.13;0.13;;;;;;;13.19;78.39;97956.59;4992077;28;20048;-65
2023/09/08 06:13:10;;;;;;;0.25;0.25;;;;;;;13.29;77.89;97956.19;4983673;28;20042;-66
2023/09/08 06:15:38;;;;;;;0.13;0.13;;;;;;;13.42;77.95;97952.72;4982300;28;20155;-66
2023/09/08 06:18:07;;;;;;;0.13;0.13;;;;;;;13.49;77.74;97956.25;5001299;28;20124;-66
2023/09/08 06:20:35;;;;;;;0.10;0.10;;;;;;;13.60;77.21;97963.69;4989466;28;20464;-65
2023/09/08 06:23:03;;;;;;;0.20;0.20;;;;;;;13.73;77.15;97960.19;4991479;28;20042;-65
2023/09/08 06:25:31;;;;;;;0.15;0.15;;;;;;;13.82;76.96;97950.91;4987402;28;20042;-66
2023/09/08 06:27:59;;;;;;;0.22;0.22;;;;;;;13.90;76.93;97950.72;4983919;28;20116;-65
2023/09/08 06:30:27;;;;;;;0.03;0.03;;;;;;;14.04;76.55;97948.81;4986688;28;20053;-66
2023/09/08 06:32:55;;;;;;;0.13;0.13;;;;;;;14.13;76.54;97951.09;4987331;28;20042;-66
2023/09/08 06:35:26;;;;;;;0.20;0.20;;;;;;;14.25;76.46;97951.28;4985699;28;20512;-66
2023/09/08 06:37:54;;;;;;;0.10;0.10;;;;;;;14.36;76.31;97953.34;4988547;28;20045;-66
2023/09/08 06:40:22;;;;;;;0.13;0.13;;;;;;;14.48;75.98;97946.31;4984345;28;20069;-66
2023/09/08 06:42:50;;;;;;;0.30;0.30;;;;;;;14.60;75.68;97941.13;5007228;28;20046;-65
2023/09/08 06:45:26;;;;;;;0.05;0.05;;;;;;;14.76;75.14;97946.00;4982388;28;20045;-66
2023/09/08 06:47:55;;;;;;;0.30;0.30;;;;;;;14.90;75.13;97944.09;4984468;28;20568;-66
2023/09/08 06:50:26;;;;;;;0.10;0.10;;;;;;;15.05;74.39;97945.47;4993033;28;20505;-66
2023/09/08 06:52:53;;;;;;;0.30;0.30;;;;;;;15.16;74.01;97938.59;4986679;28;20513;-67
2023/09/08 06:55:21;;;;;;;0.13;0.13;;;;;;;15.26;73.82;97946.22;5001679;28;20490;-67
2023/09/08 06:57:49;;;;;;;0.20;0.20;;;;;;;15.37;73.96;97951.72;4988095;28;20042;-66
2023/09/08 07:00:18;;;;;;;0.22;0.22;;;;;;;15.51;73.84;97947.06;5008232;28;20429;-66
2023/09/08 07:02:45;;;;;;;0.10;0.10;;;;;;;15.59;73.36;97949.53;5006836;28;20679;-66
2023/09/08 07:05:14;;;;;;;0.17;0.17;;;;;;;15.69;72.97;97935.59;4988880;28;20135;-65
2023/09/08 07:07:43;;;;;;;0.13;0.13;;;;;;;15.79;72.57;97931.38;4991408;28;20050;-66
2023/09/08 07:10:12;;;;;;;0.10;0.10;;;;;;;15.89;72.55;97933.56;5008839;28;20521;-66
2023/09/08 07:12:40;;;;;;;0.20;0.20;;;;;;;15.98;72.51;97934.13;4985752;28;20042;-65
2023/09/08 07:15:09;;;;;;;0.13;0.13;;;;;;;16.10;72.64;97935.88;4990074;28;20593;-65
2023/09/08 07:17:37;;;;;;;0.10;0.10;;;;;;;16.18;72.32;97933.94;4983394;28;20506;-66
2023/09/08 07:20:06;;;;;;;0.17;0.17;;;;;;;16.26;71.65;97926.41;5013471;28;20121;-66
2023/09/08 07:22:34;;;;;;;0.30;0.30;;;;;;;16.36;71.52;97929.41;5005698;28;20462;-66
2023/09/08 07:25:04;;;;;;;0.10;0.10;;;;;;;16.46;71.41;97929.72;4984976;28;20129;-65
2023/09/08 07:27:32;;;;;;;0.30;0.20;;;;;;;16.56;71.55;97921.09;4981491;28;20043;-66
2023/09/08 07:30:00;;;;;;;0.13;0.13;;;;;;;16.69;70.99;97933.66;4989297;28;20529;-67
2023/09/08 07:32:29;;;;;;;0.20;0.20;;;;;;;16.78;70.69;97940.38;4989307;28;20045;-66
2023/09/08 07:34:57;;;;;;;0.15;0.15;;;;;;;16.90;70.48;97933.19;5005021;28;20042;-67
2023/09/08 07:37:25;;;;;;;0.13;0.13;;;;;;;17.02;70.41;97934.06;5010112;28;20037;-66
2023/09/08 07:39:53;;;;;;;0.20;0.20;;;;;;;17.15;70.05;97933.06;4989322;28;20042;-65
2023/09/08 07:42:23;;;;;;;0.03;0.03;;;;;;;17.28;70.05;97934.75;4986290;28;20078;-65
2023/09/08 07:44:51;;;;;;;0.20;0.20;;;;;;;17.39;69.50;97933.97;4979617;28;20045;-66
2023/09/08 07:47:19;;;;;;;0.03;0.03;;;;;;;17.52;68.96;97933.78;5008585;28;20648;-65
2023/09/08 07:49:48;;;;;;;0.20;0.20;;;;;;;17.65;69.02;97930.91;5010810;28;20064;-65
2023/09/08 07:52:16;;;;;;;0.17;0.17;;;;;;;17.78;69.07;97930.69;5047471;23;20049;-70
2023/09/08 07:54:44;;;;;;;0.08;0.08;;;;;;;17.91;69.18;97927.78;5027259;28;20060;-70
2023/09/08 07:57:11;;;;;;;0.03;0.03;;;;;;;18.04;68.76;97934.88;5034753;28;20045;-70
2023/09/08 07:59:40;;;;;;;0.10;0.10;;;;;;;18.15;68.08;97933.22;5027702;28;20072;-70
2023/09/08 08:02:08;;;;;;;0.10;0.10;;;;;;;18.26;68.28;97933.22;5027653;28;20416;-70
2023/09/08 08:04:36;;;;;;;0.10;0.10;;;;;;;18.37;68.55;97923.47;5030031;28;20553;-70
2023/09/08 08:07:03;;;;;;;0.13;0.13;;;;;;;18.47;67.97;97929.09;5030169;28;20052;-70
2023/09/08 08:09:31;;;;;;;0.13;0.13;;;;;;;18.61;67.92;97929.69;5027314;28;20033;-70
2023/09/08 08:11:59;;;;;;;0.20;0.20;;;;;;;18.74;67.41;97934.03;5024049;28;20052;-70
2023/09/08 08:14:26;;;;;;;0.13;0.13;;;;;;;18.88;66.51;97935.41;5027638;28;20066;-70
2023/09/08 08:16:55;;;;;;;0.10;0.10;;;;;;;19.04;65.99;97932.75;5027735;28;20468;-70
2023/09/08 08:19:23;;;;;;;0.13;0.13;;;;;;;19.22;64.57;97931.75;5032299;28;20116;-70
2023/09/08 08:21:54;;;;;;;0.13;0.13;;;;;;;19.37;64.87;97931.22;5031269;28;20079;-70
2023/09/08 08:24:21;;;;;;;0.10;0.10;;;;;;;19.54;64.17;97940.22;5031165;28;20037;-70
2023/09/08 08:26:51;;;;;;;0.03;0.03;;;;;;;19.71;63.81;97927.56;5028438;28;20049;-70
2023/09/08 08:29:19;;;;;;;0.10;0.10;;;;;;;19.88;63.52;97924.84;5022752;28;20442;-70
2023/09/08 08:31:47;;;;;;;0.10;0.10;;;;;;;20.10;61.49;97920.31;5031395;28;20152;-70
2023/09/08 08:34:16;;;;;;;0.13;0.13;;;;;;;20.22;62.33;97919.41;5027988;28;20419;-70
2023/09/08 08:36:44;;;;;;;0.10;0.10;;;;;;;20.37;61.93;97919.66;5031099;28;20045;-70
2023/09/08 08:39:11;;;;;;;0.10;0.10;;;;;;;20.53;63.30;97921.53;5027380;28;20136;-71
2023/09/08 08:41:41;;;;;;;0.10;0.10;;;;;;;20.68;61.36;97924.44;5029091;28;20042;-70
2023/09/08 08:44:09;;;;;;;0.10;0.10;;;;;;;20.83;61.00;97918.41;5028212;28;20444;-70
2023/09/08 08:46:38;;;;;;;0.15;0.15;;;;;;;20.98;60.33;97920.47;5029213;28;20046;-70
2023/09/08 08:49:06;;;;;;;0.10;0.10;;;;;;;21.11;58.65;97907.34;5026674;28;20539;-70
2023/09/08 08:51:36;;;;;;;0.22;0.22;;;;;;;21.21;56.69;97914.78;5027951;28;20042;-70
2023/09/08 08:54:04;;;;;;;0.08;0.08;;;;;;;21.36;52.09;97911.44;5033871;28;20100;-70
2023/09/08 08:56:32;;;;;;;0.08;0.08;;;;;;;21.81;48.76;97916.47;5024985;28;20113;-70
2023/09/08 08:59:02;;;;;;;0.10;0.10;;;;;;;22.10;47.25;97906.16;5028888;28;20061;-71
2023/09/08 09:01:31;;;;;;;0.00;0.00;;;;;;;22.24;47.28;97913.59;5029012;28;20144;-70
2023/09/08 09:03:59;;;;;;;0.10;0.10;;;;;;;22.31;46.87;97911.47;5026442;28;20045;-70
2023/09/08 09:06:27;;;;;;;0.10;0.10;;;;;;;22.37;47.30;97923.19;5027581;28;20041;-70
2023/09/08 09:08:56;;;;;;;0.10;0.10;;;;;;;22.50;45.92;97914.59;5024450;28;20041;-70
2023/09/08 09:11:24;;;;;;;0.05;0.05;;;;;;;22.62;45.79;97917.09;5020564;28;20386;-70
2023/09/08 09:13:52;;;;;;;0.10;0.10;;;;;;;22.69;45.66;97907.59;5027010;28;20048;-70
2023/09/08 09:16:20;;;;;;;0.03;0.03;;;;;;;22.71;45.70;97920.94;5029694;28;20041;-71
2023/09/08 09:18:55;;;;;;;0.20;0.20;;;;;;;22.77;45.41;97919.91;5029043;28;20132;-70
2023/09/08 09:21:23;;;;;;;0.20;0.20;;;;;;;22.86;45.91;97918.31;5030419;28;20040;-70
2023/09/08 09:23:51;;;;;;;0.00;0.00;;;;;;;22.93;46.17;97913.47;5028701;28;20045;-70
2023/09/08 09:26:27;;;;;;;0.03;0.03;;;;;;;23.04;46.95;97912.44;5029743;28;20124;-70
2023/09/08 09:28:55;;;;;;;0.10;0.10;;;;;;;23.14;45.26;97916.28;5020935;28;20175;-70
2023/09/08 09:31:26;;;;;;;0.03;0.03;;;;;;;23.25;45.33;97915.22;5024677;28;20065;-70
2023/09/08 09:34:05;;;;;;;0.13;0.13;;;;;;;23.32;45.22;97911.13;5022066;28;20372;-70
2023/09/08 09:36:33;;;;;;;0.00;0.00;;;;;;;23.37;43.47;97905.69;5023441;28;20401;-70
2023/09/08 09:39:01;;;;;;;0.10;0.10;;;;;;;23.37;44.09;97905.69;5025007;28;20121;-70
2023/09/08 09:41:30;;;;;;;0.10;0.10;;;;;;;23.46;44.21;97903.28;5025417;28;20115;-70
2023/09/08 09:43:59;;;;;;;0.10;0.10;;;;;;;23.54;45.15;97908.22;5025857;28;20480;-70
2023/09/08 09:46:28;;;;;;;0.10;0.10;;;;;;;23.64;44.53;97901.97;5022746;28;20042;-70
2023/09/08 09:48:57;;;;;;;0.00;0.00;;;;;;;23.73;45.41;97905.78;5021498;28;20046;-70
2023/09/08 09:51:25;;;;;;;0.03;0.03;;;;;;;23.79;43.57;97902.78;5029274;28;20040;-70
2023/09/08 09:53:54;;;;;;;0.10;0.10;;;;;;;23.88;43.26;97897.59;5025266;28;20063;-70
2023/09/08 09:56:24;;;;;;;0.00;0.00;;;;;;;24.01;40.64;97899.78;5027835;28;20497;-70
2023/09/08 09:58:55;;;;;;;0.03;0.03;;;;;;;24.16;40.49;97888.06;5024968;28;20038;-70
2023/09/08 10:01:25;;;;;;;0.00;0.00;;;;;;;24.30;40.75;97900.06;5028792;28;20049;-70
2023/09/08 10:03:54;;;;;;;0.00;0.00;;;;;;;24.37;40.79;97892.41;5020237;28;20128;-70
2023/09/08 10:06:22;;;;;;;0.00;0.00;;;;;;;24.41;40.61;97896.22;5028225;28;20052;-70
2023/09/08 10:08:51;;;;;;;0.10;0.10;;;;;;;24.52;40.77;97899.75;5024853;28;20083;-70
2023/09/08 10:11:21;;;;;;;0.10;0.10;;;;;;;24.63;40.43;97887.69;5030303;28;20045;-70
2023/09/08 10:13:51;;;;;;;0.00;0.00;;;;;;;24.92;39.33;97885.16;5025896;28;20037;-70
2023/09/08 10:16:21;;;;;;;0.03;0.03;;;;;;;24.98;39.78;97888.69;5030149;28;20037;-70
2023/09/08 10:18:50;;;;;;;0.03;0.03;;;;;;;25.08;39.56;97886.72;5029577;28;20057;-70
2023/09/08 10:21:19;;;;;;;0.00;0.00;;;;;;;25.14;39.31;97885.59;5029802;28;20485;-70
2023/09/08 10:23:53;;;;;;;0.05;0.05;;;;;;;25.23;40.28;97877.63;5029087;28;20177;-70
2023/09/08 10:26:25;;;;;;;0.10;0.10;;;;;;;25.39;40.30;97886.56;5029036;28;20544;-70
2023/09/08 10:28:55;;;;;;;0.10;0.10;;;;;;;25.70;40.48;97882.56;5025945;28;21936;-70
2023/09/08 10:31:26;;;;;;;0.03;0.03;;;;;;;25.92;40.24;97888.41;5017822;28;20520;-71
2023/09/08 10:33:55;;;;;;;0.10;0.10;;;;;;;26.24;38.14;97884.28;5019792;28;20054;-70
2023/09/08 10:36:23;;;;;;;0.10;0.10;;;;;;;26.15;37.86;97875.88;5020786;28;20045;-70
2023/09/08 10:38:52;;;;;;;0.00;0.00;;;;;;;26.21;37.73;97882.13;5025003;28;20045;-70
2023/09/08 10:41:32;;;;;;;0.00;0.00;;;;;;;26.24;38.92;97878.81;5027399;28;20053;-70
2023/09/08 10:44:04;;;;;;;0.10;0.00;;;;;;;26.59;37.99;97874.88;5020765;28;20045;-70
2023/09/08 10:46:34;;;;;;;0.00;0.00;;;;;;;26.84;38.33;97873.78;5023471;28;20481;-70
2023/09/08 10:49:06;;;;;;;0.03;0.03;;;;;;;26.92;36.67;97873.97;5024152;28;20045;-70
2023/09/08 10:51:35;;;;;;;0.00;0.00;;;;;;;27.24;33.16;97862.31;5025700;28;20478;-70
2023/09/08 10:54:04;;;;;;;0.05;0.05;;;;;;;27.47;33.77;97865.28;5030103;28;20051;-70
2023/09/08 10:56:49;;;;;;;0.00;0.00;;;;;;;27.39;35.19;97869.53;5025493;28;20405;-70
2023/09/08 10:59:17;;;;;;;0.05;0.05;;;;;;;27.50;36.04;97870.19;5018261;28;20042;-70
2023/09/08 11:01:48;;;;;;;0.00;0.00;;;;;;;27.63;35.76;97872.19;5020323;28;20478;-70
2023/09/08 11:04:18;;;;;;;0.00;0.00;;;;;;;27.88;34.80;97876.47;5029380;28;20088;-70
2023/09/08 11:06:46;;;;;;;0.00;0.00;;;;;;;28.10;33.17;97873.91;5025256;28;20046;-70
2023/09/08 11:09:14;;;;;;;0.00;0.00;;;;;;;27.97;31.97;97864.50;5022060;28;20412;-70
2023/09/08 11:11:42;;;;;;;0.00;0.00;;;;;;;28.00;31.22;97872.16;5024962;28;20133;-70
2023/09/08 11:14:10;;;;;;;0.10;0.10;;;;;;;28.28;31.37;97862.06;5023253;28;20052;-70
2023/09/08 11:16:38;;;;;;;0.00;0.00;;;;;;;28.27;30.32;97857.69;5027768;28;20041;-70
2023/09/08 11:19:09;;;;;;;0.00;0.00;;;;;;;28.30;31.58;97870.00;5030320;28;20393;-70
2023/09/08 11:21:37;;;;;;;0.00;0.00;;;;;;;28.25;31.64;97862.66;5028642;28;20400;-70
2023/09/08 11:24:09;;;;;;;0.00;0.00;;;;;;;28.47;31.45;97864.72;5029113;28;20401;-70
2023/09/08 11:26:37;;;;;;;0.03;0.03;;;;;;;28.66;29.85;97862.69;5027612;28;20528;-70
2023/09/08 11:29:06;;;;;;;0.00;0.00;;;;;;;28.76;30.14;97854.25;5027589;28;20049;-70
2023/09/08 11:31:34;;;;;;;0.00;0.00;;;;;;;28.96;29.57;97850.31;5031321;28;20033;-70
2023/09/08 11:34:02;;;;;;;0.00;0.00;;;;;;;29.06;30.01;97857.53;5031132;28;20033;-70
2023/09/08 11:36:31;;;;;;;0.00;0.00;;;;;;;29.01;29.36;97852.13;5031251;28;20050;-70
2023/09/08 11:38:59;;;;;;;0.00;0.00;;;;;;;28.99;29.60;97855.19;5029050;28;20054;-70
2023/09/08 11:41:28;;;;;;;0.00;0.00;;;;;;;29.06;29.84;97852.03;5031050;28;20048;-71